createdAt,value
2023-02-17T00:00:58.741Z,3.90
2023-02-17T00:03:27.004Z,4.47
2023-02-17T00:05:55.402Z,3.47
2023-02-17T00:08:23.487Z,3.67
2023-02-17T00:10:58.833Z,3.73
2023-02-17T00:13:27.084Z,3.70
2023-02-17T00:15:56.496Z,4.67
2023-02-17T00:18:24.605Z,3.90
2023-02-17T00:20:53.053Z,3.43
2023-02-17T00:23:21.000Z,3.10
2023-02-17T00:25:48.941Z,3.70
2023-02-17T00:28:16.895Z,4.20
2023-02-17T00:30:44.883Z,4.07
2023-02-17T00:33:14.129Z,3.80
2023-02-17T00:35:42.539Z,3.87
2023-02-17T00:38:10.497Z,3.43
2023-02-17T00:40:38.880Z,3.20
2023-02-17T00:43:07.107Z,3.43
2023-02-17T00:45:35.110Z,3.63
2023-02-17T00:48:03.299Z,3.17
2023-02-17T00:50:32.616Z,3.17
2023-02-17T00:53:01.096Z,3.90
2023-02-17T00:55:29.068Z,3.53
2023-02-17T00:57:57.052Z,3.40
2023-02-17T01:00:25.061Z,3.43
2023-02-17T01:02:53.025Z,3.30
2023-02-17T01:05:21.244Z,3.50
2023-02-17T01:07:50.580Z,3.30
2023-02-17T01:10:19.048Z,4.00
2023-02-17T01:12:47.437Z,3.10
2023-02-17T01:15:15.836Z,3.60
2023-02-17T01:17:43.793Z,3.97
2023-02-17T01:20:12.250Z,2.80
2023-02-17T01:22:40.782Z,3.83
2023-02-17T01:25:10.245Z,3.23
2023-02-17T01:27:38.457Z,3.53
2023-02-17T01:30:07.586Z,3.83
2023-02-17T01:32:35.633Z,2.60
2023-02-17T01:35:03.719Z,2.97
2023-02-17T01:37:33.314Z,5.07
2023-02-17T01:40:01.925Z,3.60
2023-02-17T01:42:31.348Z,3.40
2023-02-17T01:45:36.740Z,3.63
2023-02-17T01:48:09.888Z,3.30
2023-02-17T01:50:41.755Z,3.63
2023-02-17T01:53:11.606Z,3.97
2023-02-17T01:55:41.726Z,3.23
2023-02-17T01:58:14.960Z,3.20
2023-02-17T02:00:43.811Z,2.90
2023-02-17T02:03:14.079Z,4.00
2023-02-17T02:05:43.414Z,2.83
2023-02-17T02:08:13.128Z,3.60
2023-02-17T02:10:41.217Z,3.17
2023-02-17T02:13:10.947Z,2.83
2023-02-17T02:15:43.062Z,2.80
2023-02-17T02:18:32.740Z,3.27
2023-02-17T02:21:39.809Z,3.10
2023-02-17T02:24:22.804Z,3.17
2023-02-17T02:27:36.836Z,3.03
2023-02-17T02:30:38.528Z,3.23
2023-02-17T02:33:15.335Z,3.20
2023-02-17T02:35:51.592Z,2.90
2023-02-17T02:38:25.471Z,3.20
2023-02-17T02:40:59.384Z,3.30
2023-02-17T02:43:29.839Z,3.63
2023-02-17T02:45:57.919Z,2.40
2023-02-17T02:48:27.485Z,2.27
2023-02-17T02:51:42.594Z,3.23
2023-02-17T02:54:38.444Z,2.87
2023-02-17T02:57:20.425Z,3.10
2023-02-17T03:00:00.202Z,2.97
2023-02-17T03:02:37.567Z,5.07
2023-02-17T03:05:14.456Z,3.33
2023-02-17T03:07:47.822Z,4.67
2023-02-17T03:10:17.077Z,3.00
2023-02-17T03:12:45.562Z,2.70
2023-02-17T03:15:19.897Z,2.97
2023-02-17T03:17:47.947Z,2.80
2023-02-17T03:20:17.945Z,3.27
2023-02-17T03:22:48.342Z,2.90
2023-02-17T03:25:16.902Z,3.00
2023-02-17T03:27:45.008Z,2.50
2023-02-17T03:30:14.164Z,3.30
2023-02-17T03:32:42.514Z,2.70
2023-02-17T03:35:11.030Z,2.90
2023-02-17T03:37:40.455Z,3.53
2023-02-17T03:40:10.329Z,2.83
2023-02-17T03:42:38.352Z,3.20
2023-02-17T03:45:07.040Z,2.80
2023-02-17T03:47:35.074Z,3.50
2023-02-17T03:50:03.129Z,3.30
2023-02-17T03:52:32.623Z,3.33
2023-02-17T03:55:02.237Z,2.93
2023-02-17T03:57:31.890Z,3.40
2023-02-17T03:59:59.911Z,3.20
2023-02-17T04:02:27.925Z,2.83
2023-02-17T04:04:55.932Z,3.80
2023-02-17T04:07:23.944Z,3.37
2023-02-17T04:09:51.936Z,2.73
2023-02-17T04:12:21.323Z,3.40
2023-02-17T04:14:49.318Z,2.93
2023-02-17T04:17:17.281Z,3.23
2023-02-17T04:19:45.310Z,3.50
2023-02-17T04:22:13.322Z,3.13
2023-02-17T04:24:41.714Z,3.73
2023-02-17T04:27:09.952Z,3.43
2023-02-17T04:29:39.414Z,3.37
2023-02-17T04:32:07.541Z,4.00
2023-02-17T04:34:36.035Z,2.87
2023-02-17T04:37:04.109Z,3.37
2023-02-17T04:39:32.178Z,3.57
2023-02-17T04:42:00.249Z,3.23
2023-02-17T04:44:28.344Z,3.40
2023-02-17T04:46:57.760Z,2.90
2023-02-17T04:49:25.853Z,3.40
2023-02-17T04:51:53.969Z,3.70
2023-02-17T04:54:22.766Z,2.90
2023-02-17T04:56:50.732Z,3.47
2023-02-17T04:59:18.730Z,3.20
2023-02-17T05:01:46.699Z,3.07
2023-02-17T05:04:16.076Z,2.83
2023-02-17T05:06:44.110Z,3.03
2023-02-17T05:09:12.325Z,2.70
2023-02-17T05:11:40.409Z,2.63
2023-02-17T05:14:08.517Z,2.70
2023-02-17T05:16:36.494Z,3.10
2023-02-17T05:19:04.699Z,2.80
2023-02-17T05:21:34.113Z,2.80
2023-02-17T05:24:02.169Z,2.90
2023-02-17T05:26:30.166Z,3.10
2023-02-17T05:28:58.277Z,2.77
2023-02-17T05:31:26.589Z,2.70
2023-02-17T05:33:55.090Z,3.10
2023-02-17T05:36:23.338Z,3.40
2023-02-17T05:38:52.722Z,3.00
2023-02-17T05:41:21.305Z,3.00
2023-02-17T05:43:49.647Z,2.97
2023-02-17T05:46:17.756Z,3.20
2023-02-17T05:48:45.984Z,3.00
2023-02-17T05:51:17.171Z,3.30
2023-02-17T05:53:45.265Z,3.20
2023-02-17T05:56:14.683Z,3.20
2023-02-17T05:58:42.792Z,3.10
2023-02-17T06:01:11.513Z,2.90
2023-02-17T06:03:40.047Z,3.10
2023-02-17T06:06:08.719Z,2.80
2023-02-17T06:08:37.573Z,3.37
2023-02-17T06:11:05.970Z,4.20
2023-02-17T06:13:35.458Z,3.10
2023-02-17T06:16:04.008Z,2.70
2023-02-17T06:18:32.055Z,3.73
2023-02-17T06:21:00.153Z,3.30
2023-02-17T06:23:28.575Z,3.27
2023-02-17T06:25:56.948Z,4.30
2023-02-17T06:28:24.951Z,3.77
2023-02-17T06:30:54.431Z,3.33
2023-02-17T06:33:22.534Z,2.87
2023-02-17T06:35:51.140Z,3.30
2023-02-17T06:38:19.866Z,3.77
2023-02-17T06:40:47.958Z,3.43
2023-02-17T06:43:16.080Z,3.20
2023-02-17T06:45:44.235Z,3.03
2023-02-17T06:48:13.615Z,2.90
2023-02-17T06:50:44.008Z,3.30
2023-02-17T06:53:12.106Z,3.07
2023-02-17T06:55:40.140Z,3.23
2023-02-17T06:58:08.484Z,3.90
2023-02-17T07:00:37.219Z,3.43
2023-02-17T07:03:05.605Z,2.93
2023-02-17T07:05:37.370Z,2.70
2023-02-17T07:08:06.044Z,3.50
2023-02-17T07:10:34.183Z,3.30
2023-02-17T07:13:02.230Z,3.33
2023-02-17T07:15:30.375Z,3.30
2023-02-17T07:17:58.468Z,3.23
2023-02-17T07:20:26.454Z,2.63
2023-02-17T07:22:55.920Z,2.83
2023-02-17T07:25:24.458Z,3.23
2023-02-17T07:27:52.592Z,3.07
2023-02-17T07:30:22.253Z,3.37
2023-02-17T07:32:50.328Z,2.63
2023-02-17T07:35:18.499Z,3.03
2023-02-17T07:37:46.441Z,2.57
2023-02-17T07:40:15.971Z,2.80
2023-02-17T07:42:43.964Z,2.83
2023-02-17T07:45:11.991Z,3.27
2023-02-17T07:47:39.902Z,3.27
2023-02-17T07:50:09.050Z,2.57
2023-02-17T07:52:37.246Z,2.90
2023-02-17T07:55:05.695Z,2.60
2023-02-17T07:57:35.180Z,2.73
2023-02-17T08:00:03.510Z,2.90
2023-02-17T08:02:31.488Z,2.70
2023-02-17T08:04:59.497Z,2.60
2023-02-17T08:07:27.601Z,2.13
2023-02-17T08:10:13.056Z,2.80
2023-02-17T08:13:00.036Z,2.43
2023-02-17T08:15:28.412Z,2.87
2023-02-17T08:17:56.388Z,2.90
2023-02-17T08:20:24.377Z,2.70
2023-02-17T08:22:52.307Z,2.40
2023-02-17T08:25:20.591Z,2.93
2023-02-17T08:27:49.957Z,2.50
2023-02-17T08:30:18.629Z,2.60
2023-02-17T08:32:47.644Z,2.63
2023-02-17T08:35:15.656Z,2.70
2023-02-17T08:37:43.628Z,3.00
2023-02-17T08:40:11.916Z,2.67
2023-02-17T08:42:39.913Z,2.63
2023-02-17T08:45:09.586Z,1.97
2023-02-17T08:47:38.057Z,2.07
2023-02-17T08:50:09.317Z,2.60
2023-02-17T08:52:37.595Z,2.13
2023-02-17T08:55:06.195Z,2.23
2023-02-17T08:57:34.678Z,2.70
2023-02-17T09:00:05.552Z,2.10
2023-02-17T09:02:35.770Z,2.00
2023-02-17T09:05:04.272Z,2.23
2023-02-17T09:07:32.328Z,2.60
2023-02-17T09:10:01.216Z,2.10
2023-02-17T09:12:30.629Z,2.17
2023-02-17T09:14:58.628Z,2.93
2023-02-17T09:17:26.708Z,2.23
2023-02-17T09:19:56.098Z,2.00
2023-02-17T09:22:32.094Z,2.00
2023-02-17T09:25:00.503Z,1.90
2023-02-17T09:27:28.518Z,1.77
2023-02-17T09:29:56.507Z,2.00
2023-02-17T09:32:24.782Z,2.10
2023-02-17T09:34:53.002Z,2.93
2023-02-17T09:37:23.024Z,1.83
2023-02-17T09:39:51.202Z,2.17
2023-02-17T09:42:22.052Z,2.43
2023-02-17T09:44:54.737Z,2.23
2023-02-17T09:47:26.603Z,1.90
2023-02-17T09:49:57.418Z,1.53
2023-02-17T09:52:31.957Z,1.87
2023-02-17T09:55:05.281Z,2.00
2023-02-17T09:57:38.470Z,2.50
2023-02-17T10:00:12.897Z,1.90
2023-02-17T10:02:46.198Z,2.53
2023-02-17T10:05:17.703Z,1.90
2023-02-17T10:07:50.181Z,1.90
2023-02-17T10:10:23.253Z,1.73
2023-02-17T10:12:54.672Z,1.93
2023-02-17T10:15:26.287Z,1.80
2023-02-17T10:17:59.767Z,1.80
2023-02-17T10:20:33.758Z,1.60
2023-02-17T10:23:08.486Z,1.40
2023-02-17T10:25:57.811Z,2.10
2023-02-17T10:28:43.232Z,2.03
2023-02-17T10:31:16.770Z,1.73
2023-02-17T10:33:53.169Z,1.60
2023-02-17T10:36:26.474Z,1.50
2023-02-17T10:39:02.815Z,1.40
2023-02-17T10:41:37.115Z,1.50
2023-02-17T10:44:10.437Z,2.23
2023-02-17T10:46:41.856Z,1.30
2023-02-17T10:49:20.145Z,1.40
2023-02-17T10:51:48.168Z,1.53
2023-02-17T10:54:33.878Z,1.40
2023-02-17T10:57:04.640Z,1.53
2023-02-17T10:59:36.343Z,1.30
2023-02-17T11:02:17.002Z,1.40
2023-02-17T11:04:47.795Z,1.53
2023-02-17T11:07:19.327Z,1.70
2023-02-17T11:09:51.965Z,1.43
2023-02-17T11:12:30.665Z,1.43
2023-02-17T11:14:58.999Z,1.33
2023-02-17T11:17:29.977Z,1.10
2023-02-17T11:20:00.458Z,1.37
2023-02-17T11:22:35.358Z,1.33
2023-02-17T11:25:08.463Z,1.20
2023-02-17T11:27:36.586Z,1.30
2023-02-17T11:30:10.866Z,1.40
2023-02-17T11:32:39.358Z,1.13
2023-02-17T11:35:23.550Z,1.30
2023-02-17T11:37:52.086Z,0.97
2023-02-17T11:40:30.940Z,0.60
2023-02-17T11:43:00.401Z,0.90
2023-02-17T11:45:34.532Z,0.93
2023-02-17T11:48:22.016Z,1.17
2023-02-17T11:50:59.896Z,1.00
2023-02-17T11:53:40.566Z,0.90
2023-02-17T11:56:18.055Z,1.10
2023-02-17T11:59:04.176Z,1.07
2023-02-17T12:02:02.657Z,0.80
2023-02-17T12:04:31.717Z,1.00
2023-02-17T12:07:15.596Z,0.97
2023-02-17T12:09:54.053Z,0.83
2023-02-17T12:12:32.023Z,1.00
2023-02-17T12:15:09.896Z,0.67
2023-02-17T12:17:47.653Z,0.93
2023-02-17T12:20:38.258Z,1.30
2023-02-17T12:23:18.379Z,1.00
2023-02-17T12:25:54.667Z,1.00
2023-02-17T12:28:50.055Z,1.00
2023-02-17T12:31:40.894Z,1.07
2023-02-17T12:34:16.401Z,0.90
2023-02-17T12:36:44.941Z,1.70
2023-02-17T12:39:17.210Z,0.90
2023-02-17T12:41:50.173Z,1.20
2023-02-17T12:44:23.298Z,1.20
2023-02-17T12:46:54.601Z,0.97
2023-02-17T12:49:28.429Z,0.90
2023-02-17T12:52:02.087Z,1.00
2023-02-17T12:54:35.363Z,0.90
2023-02-17T12:57:13.805Z,0.97
2023-02-17T12:59:45.194Z,0.70
2023-02-17T13:02:15.071Z,0.87
2023-02-17T13:04:44.839Z,0.77
2023-02-17T13:07:26.507Z,1.07
2023-02-17T13:09:56.631Z,1.20
2023-02-17T13:12:59.620Z,1.20
2023-02-17T13:15:35.638Z,0.97
2023-02-17T13:18:05.257Z,1.10
2023-02-17T13:20:52.445Z,0.80
2023-02-17T13:23:39.407Z,1.13
2023-02-17T13:26:16.713Z,0.90
2023-02-17T13:28:45.716Z,0.90
2023-02-17T13:31:21.110Z,1.00
2023-02-17T13:33:51.949Z,0.93
2023-02-17T13:36:23.641Z,1.10
2023-02-17T13:38:59.747Z,0.80
2023-02-17T13:41:29.186Z,1.17
2023-02-17T13:43:57.283Z,1.77
2023-02-17T13:46:28.088Z,0.97
2023-02-17T13:49:01.850Z,1.13
2023-02-17T13:51:32.344Z,0.83
2023-02-17T13:54:07.680Z,0.93
2023-02-17T13:56:35.747Z,0.90
2023-02-17T13:59:11.671Z,0.80
2023-02-17T14:01:43.243Z,1.23
2023-02-17T14:04:23.045Z,0.70
2023-02-17T14:06:52.637Z,0.63
2023-02-17T14:09:23.734Z,0.80
2023-02-17T14:11:53.134Z,0.80
2023-02-17T14:14:22.793Z,0.97
2023-02-17T14:17:00.560Z,0.63
2023-02-17T14:19:29.204Z,1.00
2023-02-17T14:22:04.188Z,1.03
2023-02-17T14:24:35.002Z,0.80
2023-02-17T14:27:08.640Z,0.80
2023-02-17T14:29:42.186Z,0.80
2023-02-17T14:32:30.374Z,0.77
2023-02-17T14:35:21.060Z,1.23
2023-02-17T14:37:49.073Z,1.00
2023-02-17T14:40:20.536Z,1.20
2023-02-17T14:42:48.724Z,1.40
2023-02-17T14:45:17.980Z,1.00
2023-02-17T14:47:47.735Z,1.20
2023-02-17T14:50:17.422Z,0.90
2023-02-17T14:52:47.894Z,1.13
2023-02-17T14:55:20.785Z,1.23
2023-02-17T14:57:49.011Z,0.83
2023-02-17T15:00:17.739Z,1.20
2023-02-17T15:02:47.724Z,0.97
2023-02-17T15:05:15.804Z,1.10
2023-02-17T15:07:44.120Z,1.43
2023-02-17T15:10:19.162Z,1.43
2023-02-17T15:12:47.587Z,1.20
2023-02-17T15:15:17.156Z,1.40
2023-02-17T15:17:46.812Z,1.67
2023-02-17T15:20:16.087Z,1.63
2023-02-17T15:22:44.441Z,1.27
2023-02-17T15:25:17.381Z,1.77
2023-02-17T15:27:46.311Z,1.60
2023-02-17T15:30:16.919Z,2.30
2023-02-17T15:32:45.674Z,1.90
2023-02-17T15:35:24.426Z,1.90
2023-02-17T15:37:52.669Z,2.00
2023-02-17T15:40:26.698Z,2.40
2023-02-17T15:42:57.643Z,2.50
2023-02-17T15:45:26.202Z,2.27
2023-02-17T15:48:03.478Z,1.70
2023-02-17T15:50:33.153Z,2.50
2023-02-17T15:53:01.498Z,2.20
2023-02-17T15:55:29.562Z,2.50
2023-02-17T15:58:03.071Z,1.63
2023-02-17T16:00:34.859Z,2.20
2023-02-17T16:03:03.526Z,2.20
2023-02-17T16:05:33.520Z,2.20
2023-02-17T16:08:01.749Z,1.93
2023-02-17T16:10:29.910Z,1.53
2023-02-17T16:13:01.052Z,2.07
2023-02-17T16:15:31.659Z,2.10
2023-02-17T16:17:59.973Z,2.10
2023-02-17T16:20:30.497Z,1.73
2023-02-17T16:23:00.273Z,1.83
2023-02-17T16:25:30.174Z,2.00
2023-02-17T16:27:58.304Z,1.90
2023-02-17T16:30:31.068Z,1.77
2023-02-17T16:32:59.511Z,1.93
2023-02-17T16:35:30.211Z,2.10
2023-02-17T16:38:02.643Z,1.80
2023-02-17T16:40:32.752Z,1.40
2023-02-17T16:43:00.840Z,1.80
2023-02-17T16:45:31.463Z,1.50
2023-02-17T16:48:01.145Z,2.10
2023-02-17T16:50:31.435Z,2.07
2023-02-17T16:53:02.850Z,1.83
2023-02-17T16:55:33.730Z,2.43
2023-02-17T16:58:02.945Z,2.57
2023-02-17T17:00:33.876Z,2.00
2023-02-17T17:03:01.818Z,2.70
2023-02-17T17:05:31.051Z,1.90
2023-02-17T17:08:00.390Z,2.07
2023-02-17T17:10:29.854Z,1.73
2023-02-17T17:12:58.271Z,2.20
2023-02-17T17:15:26.783Z,2.10
2023-02-17T17:17:57.849Z,1.80
2023-02-17T17:20:31.192Z,2.73
2023-02-17T17:23:01.678Z,2.37
2023-02-17T17:25:30.324Z,2.23
2023-02-17T17:27:58.816Z,2.37
2023-02-17T17:30:31.648Z,2.37
2023-02-17T17:33:00.215Z,3.03
2023-02-17T17:35:29.209Z,2.40
2023-02-17T17:37:58.736Z,2.17
2023-02-17T17:40:30.490Z,1.80
2023-02-17T17:42:58.516Z,2.30
2023-02-17T17:45:26.902Z,3.60
2023-02-17T17:47:55.569Z,2.20
2023-02-17T17:50:25.224Z,2.40
2023-02-17T17:52:53.421Z,1.60
2023-02-17T17:55:21.416Z,2.03
2023-02-17T17:57:51.113Z,2.43
2023-02-17T18:00:20.307Z,2.70
2023-02-17T18:02:48.370Z,2.00
2023-02-17T18:05:16.580Z,2.73
2023-02-17T18:07:47.784Z,2.17
2023-02-17T18:10:19.924Z,2.50
2023-02-17T18:12:52.931Z,2.27
2023-02-17T18:15:21.407Z,1.97
2023-02-17T18:17:50.360Z,2.20
2023-02-17T18:20:18.473Z,1.77
2023-02-17T18:22:46.475Z,2.23
2023-02-17T18:25:14.464Z,2.20
2023-02-17T18:27:44.807Z,2.27
2023-02-17T18:30:17.261Z,2.60
2023-02-17T18:32:45.756Z,2.23
2023-02-17T18:35:14.033Z,2.07
2023-02-17T18:37:46.341Z,1.90
2023-02-17T18:40:17.280Z,2.67
2023-02-17T18:42:46.585Z,2.43
2023-02-17T18:45:17.676Z,2.07
2023-02-17T18:47:46.272Z,2.60
2023-02-17T18:50:16.909Z,2.87
2023-02-17T18:52:45.492Z,2.50
2023-02-17T18:55:14.107Z,2.00
2023-02-17T18:57:42.172Z,1.63
2023-02-17T19:00:11.454Z,1.77
2023-02-17T19:02:41.417Z,1.80
2023-02-17T19:05:11.208Z,2.07
2023-02-17T19:07:39.284Z,2.03
2023-02-17T19:10:08.618Z,1.80
2023-02-17T19:12:37.882Z,1.60
2023-02-17T19:15:06.285Z,1.90
2023-02-17T19:17:34.420Z,1.70
2023-02-17T19:20:03.961Z,2.20
2023-02-17T19:22:31.867Z,2.10
2023-02-17T19:24:59.826Z,1.90
2023-02-17T19:27:30.895Z,1.60
2023-02-17T19:29:58.976Z,2.40
2023-02-17T19:32:27.008Z,2.07
2023-02-17T19:35:11.588Z,1.73
2023-02-17T19:37:41.165Z,1.27
2023-02-17T19:40:10.213Z,1.70
2023-02-17T19:42:40.117Z,1.53
2023-02-17T19:45:08.723Z,1.80
2023-02-17T19:47:36.716Z,1.17
2023-02-17T19:50:05.122Z,1.63
2023-02-17T19:52:33.446Z,1.10
2023-02-17T19:55:02.820Z,1.50
2023-02-17T19:57:30.834Z,1.10
2023-02-17T19:59:58.874Z,1.20
2023-02-17T20:02:26.990Z,1.73
2023-02-17T20:04:55.010Z,2.10
2023-02-17T20:07:23.163Z,1.47
2023-02-17T20:09:51.579Z,1.30
2023-02-17T20:12:21.703Z,1.60
2023-02-17T20:14:49.788Z,1.20
2023-02-17T20:17:17.944Z,1.37
2023-02-17T20:19:45.912Z,1.53
2023-02-17T20:22:14.148Z,1.80
2023-02-17T20:24:42.675Z,1.57
2023-02-17T20:27:10.960Z,1.47
2023-02-17T20:29:40.377Z,1.23
2023-02-17T20:32:08.686Z,1.37
2023-02-17T20:34:39.163Z,1.30
2023-02-17T20:37:08.665Z,1.43
2023-02-17T20:39:38.088Z,2.33
2023-02-17T20:42:06.475Z,1.47
2023-02-17T20:44:34.807Z,0.90
2023-02-17T20:47:04.660Z,0.90
2023-02-17T20:49:32.701Z,1.10
2023-02-17T20:52:00.771Z,1.10
2023-02-17T20:54:28.878Z,1.10
2023-02-17T20:56:59.196Z,0.80
2023-02-17T20:59:27.448Z,0.90
2023-02-17T21:01:55.704Z,1.00
2023-02-17T21:04:25.104Z,0.80
2023-02-17T21:06:53.081Z,0.70
2023-02-17T21:09:21.183Z,0.90
2023-02-17T21:11:49.364Z,0.90
2023-02-17T21:14:17.346Z,0.60
2023-02-17T21:16:46.493Z,0.50
2023-02-17T21:19:14.721Z,0.60
2023-02-17T21:21:44.264Z,0.50
2023-02-17T21:24:12.570Z,0.70
2023-02-17T21:26:40.632Z,0.70
2023-02-17T21:29:08.879Z,0.63
2023-02-17T21:31:37.143Z,0.80
2023-02-17T21:34:06.102Z,0.57
2023-02-17T21:36:34.179Z,0.70
2023-02-17T21:39:04.255Z,0.70
2023-02-17T21:41:32.824Z,0.70
2023-02-17T21:44:18.451Z,0.83
2023-02-17T21:46:46.761Z,0.77
2023-02-17T21:49:15.100Z,0.60
2023-02-17T21:51:43.329Z,0.60
2023-02-17T21:54:13.404Z,0.70
2023-02-17T21:56:41.684Z,0.70
2023-02-17T21:59:09.965Z,0.70
2023-02-17T22:01:38.181Z,0.70
2023-02-17T22:04:06.638Z,1.20
2023-02-17T22:06:36.638Z,0.70
2023-02-17T22:09:06.757Z,0.70
2023-02-17T22:11:38.133Z,1.07
2023-02-17T22:14:10.033Z,0.60
2023-02-17T22:16:38.169Z,0.50
2023-02-17T22:19:08.172Z,0.70
2023-02-17T22:21:36.215Z,0.70
2023-02-17T22:24:04.470Z,0.80
2023-02-17T22:26:32.884Z,0.60
2023-02-17T22:29:02.233Z,0.60
2023-02-17T22:31:31.961Z,0.90
2023-02-17T22:34:02.829Z,0.80
2023-02-17T22:36:34.518Z,0.80
2023-02-17T22:39:03.083Z,0.70
2023-02-17T22:41:31.301Z,0.73
2023-02-17T22:44:00.669Z,0.80
2023-02-17T22:46:30.065Z,0.93
2023-02-17T22:48:59.381Z,0.67
2023-02-17T22:51:29.699Z,0.63
2023-02-17T22:53:58.285Z,0.70
2023-02-17T22:56:26.369Z,0.67
2023-02-17T22:58:56.418Z,0.70
2023-02-17T23:01:25.617Z,0.50
2023-02-17T23:04:15.106Z,0.53
2023-02-17T23:06:43.999Z,0.67
2023-02-17T23:09:16.540Z,0.77
2023-02-17T23:11:54.825Z,0.70
2023-02-17T23:14:25.557Z,0.60
2023-02-17T23:16:56.030Z,0.60
2023-02-17T23:19:25.521Z,0.80
2023-02-17T23:21:56.124Z,1.00
2023-02-17T23:24:26.126Z,0.83
2023-02-17T23:26:55.015Z,0.60
2023-02-17T23:29:23.779Z,0.70
2023-02-17T23:31:51.770Z,0.90
2023-02-17T23:34:20.297Z,0.90
2023-02-17T23:36:49.743Z,1.00
2023-02-17T23:39:18.159Z,0.87
2023-02-17T23:41:46.366Z,0.67
2023-02-17T23:44:15.510Z,0.90
2023-02-17T23:46:44.595Z,0.70
2023-02-17T23:49:14.966Z,0.83
2023-02-17T23:51:43.587Z,0.93
2023-02-17T23:54:13.007Z,0.70
2023-02-17T23:56:41.217Z,1.10
2023-02-17T23:59:09.367Z,0.60
